Louisville Standiford Field, Kentucky
Current Conditions -  °F | °C
As of 4:56 PM on Friday 19 Dec 2014 (Local Time) from KSDF Reporting Station
Broken Clouds Broken Clouds  
Wind Chill: 29°   Ceiling: 25000
Heat Index: 34°   Visibility: 8mi
Dew Point: 21°   Wind: 6mph
Humidity: 59%   Direction: 360°N
Pressure: 30.29"   Gusts: NA
Location:  38.18°N, 85.73°W
Report Text: KSDF 192156Z 36005KT 8SM FEW200 BKN250 01/M06 A3029 RMK AO2 SLP262 T00111061
Loading
Personal Weather Stations






























Interactive Weather Map New forecast layout! Learn more

10-Day Weather Forecast

Advertisements
Track Severe Weather on mobile